createdAt,value
2023-10-17T00:03:33.734Z,4.95
2023-10-17T00:08:35.130Z,5.28
2023-10-17T00:13:36.600Z,4.38
2023-10-17T00:18:38.087Z,5.05
2023-10-17T00:23:39.376Z,5.35
2023-10-17T00:28:40.626Z,4.70
2023-10-17T00:33:42.131Z,4.75
2023-10-17T00:38:43.700Z,5.03
2023-10-17T00:43:44.965Z,5.55
2023-10-17T00:48:46.947Z,5.15
2023-10-17T00:53:48.406Z,4.97
2023-10-17T00:58:49.625Z,5.10
2023-10-17T01:03:50.978Z,5.13
2023-10-17T01:08:52.282Z,5.03
2023-10-17T01:13:53.553Z,5.65
2023-10-17T01:18:54.820Z,6.03
2023-10-17T01:23:56.125Z,6.15
2023-10-17T01:28:57.419Z,5.60
2023-10-17T01:33:58.777Z,5.90
2023-10-17T01:39:00.032Z,5.90
2023-10-17T01:44:01.731Z,6.55
2023-10-17T01:49:02.965Z,6.65
2023-10-17T01:54:04.411Z,6.47
2023-10-17T01:59:05.754Z,6.57
2023-10-17T02:04:07.410Z,6.80
2023-10-17T02:09:08.701Z,6.47
2023-10-17T02:14:10.029Z,6.90
2023-10-17T02:19:11.454Z,6.78
2023-10-17T02:24:13.553Z,6.90
2023-10-17T02:29:17.868Z,6.80
2023-10-17T02:34:22.100Z,7.00
2023-10-17T02:39:23.629Z,6.82
2023-10-17T02:44:25.365Z,6.43
2023-10-17T02:49:26.745Z,6.50
2023-10-17T02:54:28.635Z,6.10
2023-10-17T02:59:30.318Z,6.55
2023-10-17T03:04:31.890Z,9.23
2023-10-17T03:09:33.272Z,7.53
2023-10-17T03:14:35.391Z,7.93
2023-10-17T03:19:37.721Z,8.13
2023-10-17T03:24:39.525Z,6.22
2023-10-17T03:29:41.278Z,6.55
2023-10-17T03:34:42.522Z,6.63
2023-10-17T03:39:43.744Z,6.80
2023-10-17T03:44:45.000Z,6.30
2023-10-17T03:49:46.410Z,7.05
2023-10-17T03:54:47.727Z,7.28
2023-10-17T03:59:50.454Z,8.00
2023-10-17T04:04:52.763Z,9.82
2023-10-17T04:09:54.460Z,8.38
2023-10-17T04:14:55.734Z,9.73
2023-10-17T04:19:58.114Z,8.35
2023-10-17T04:24:59.367Z,7.40
2023-10-17T04:30:00.706Z,7.53
2023-10-17T04:35:02.098Z,7.25
2023-10-17T04:40:03.374Z,7.07
2023-10-17T04:45:04.809Z,7.00
2023-10-17T04:50:06.735Z,6.57
2023-10-17T04:55:11.361Z,7.40
2023-10-17T05:00:13.033Z,6.53
2023-10-17T05:05:14.368Z,6.68
2023-10-17T05:10:15.640Z,4.85
2023-10-17T05:15:16.877Z,5.95
2023-10-17T05:20:18.124Z,6.82
2023-10-17T05:25:22.550Z,6.05
2023-10-17T05:30:23.839Z,6.38
2023-10-17T05:35:25.083Z,6.40
2023-10-17T05:40:26.309Z,5.60
2023-10-17T05:45:27.758Z,6.32
2023-10-17T05:50:29.119Z,5.30
2023-10-17T05:55:32.254Z,5.07
2023-10-17T06:00:36.046Z,5.55
2023-10-17T06:05:37.374Z,5.32
2023-10-17T06:10:38.651Z,5.75
2023-10-17T06:15:40.277Z,5.10
2023-10-17T06:20:41.608Z,5.43
2023-10-17T06:25:42.835Z,5.45
2023-10-17T06:30:44.521Z,7.88
2023-10-17T06:35:49.606Z,7.90
2023-10-17T06:40:51.231Z,7.22
2023-10-17T06:45:52.656Z,7.07
2023-10-17T06:50:54.060Z,7.03
2023-10-17T06:56:02.863Z,6.22
2023-10-17T07:01:04.145Z,6.60
2023-10-17T07:06:06.274Z,6.57
2023-10-17T07:11:07.862Z,6.28
2023-10-17T07:16:09.291Z,4.35
2023-10-17T07:21:13.783Z,4.78
2023-10-17T07:26:15.601Z,3.97
2023-10-17T07:31:17.397Z,14.13
2023-10-17T07:36:18.719Z,3.00
2023-10-17T07:41:19.974Z,2.80
2023-10-17T07:46:21.302Z,3.10
2023-10-17T07:51:22.605Z,1.80
2023-10-17T07:56:23.842Z,2.05
2023-10-17T08:01:25.307Z,1.27
2023-10-17T08:06:26.611Z,1.23
2023-10-17T08:11:28.387Z,1.05
2023-10-17T08:16:30.348Z,0.90
2023-10-17T08:21:32.027Z,1.17
2023-10-17T08:26:34.076Z,1.00
2023-10-17T08:31:35.569Z,0.90
2023-10-17T08:36:38.335Z,1.30
2023-10-17T08:41:39.646Z,0.93
2023-10-17T08:46:41.322Z,1.10
2023-10-17T08:51:42.577Z,0.68
2023-10-17T08:56:44.909Z,0.70
2023-10-17T09:02:06.454Z,0.43
2023-10-17T09:07:07.811Z,0.77
2023-10-17T09:12:09.065Z,0.80
2023-10-17T09:17:10.333Z,0.60
2023-10-17T09:22:11.560Z,0.63
2023-10-17T09:27:13.019Z,14.68
2023-10-17T09:32:33.808Z,0.82
2023-10-17T09:37:35.930Z,0.60
2023-10-17T09:42:37.327Z,0.93
2023-10-17T09:47:43.005Z,0.47
2023-10-17T09:52:45.180Z,0.50
2023-10-17T09:57:51.699Z,0.50
2023-10-17T10:03:04.686Z,0.70
2023-10-17T10:08:32.395Z,0.82
2023-10-17T10:13:53.618Z,0.50
2023-10-17T10:18:55.401Z,0.40
2023-10-17T10:23:56.971Z,0.68
2023-10-17T10:29:18.214Z,0.77
2023-10-17T10:34:19.567Z,0.70
2023-10-17T10:39:21.149Z,0.60
2023-10-17T10:44:22.385Z,0.88
2023-10-17T10:49:28.147Z,0.57
2023-10-17T10:54:48.256Z,0.68
2023-10-17T11:04:53.586Z,0.80
2023-10-17T11:10:02.026Z,0.65
2023-10-17T11:15:10.049Z,0.90
2023-10-17T11:20:12.719Z,0.50
2023-10-17T11:25:15.068Z,0.60
2023-10-17T11:30:17.428Z,0.90
2023-10-17T11:35:21.615Z,1.00
2023-10-17T11:40:30.163Z,0.93
2023-10-17T11:45:35.200Z,1.10
2023-10-17T11:50:37.222Z,0.70
2023-10-17T11:55:44.897Z,1.20
2023-10-17T12:00:46.653Z,1.08
2023-10-17T12:05:48.269Z,0.70
2023-10-17T12:10:50.966Z,1.17
2023-10-17T12:15:52.254Z,0.90
2023-10-17T12:20:53.668Z,0.80
2023-10-17T12:25:54.965Z,0.68
2023-10-17T12:30:56.427Z,0.90
2023-10-17T12:35:57.764Z,0.65
2023-10-17T12:40:59.479Z,1.00
2023-10-17T12:46:01.009Z,0.90
2023-10-17T12:51:02.840Z,0.85
2023-10-17T12:56:04.700Z,0.70
2023-10-17T13:01:06.258Z,1.02
2023-10-17T13:06:07.817Z,0.75
2023-10-17T13:11:09.040Z,0.70
2023-10-17T13:16:11.002Z,0.88
2023-10-17T13:21:15.080Z,0.68
2023-10-17T13:26:16.639Z,0.55
2023-10-17T13:31:18.070Z,0.73
2023-10-17T13:36:19.408Z,0.52
2023-10-17T13:41:20.648Z,0.70
2023-10-17T13:46:21.911Z,0.70
2023-10-17T13:51:23.290Z,0.73
2023-10-17T13:56:24.539Z,0.77
2023-10-17T14:01:26.004Z,0.90
2023-10-17T14:06:27.749Z,0.63
2023-10-17T14:11:29.097Z,0.75
2023-10-17T14:16:30.387Z,0.70
2023-10-17T14:21:31.910Z,0.82
2023-10-17T14:26:33.599Z,0.50
2023-10-17T14:31:34.884Z,1.33
2023-10-17T14:36:36.311Z,0.93
2023-10-17T14:41:37.573Z,1.10
2023-10-17T14:46:39.385Z,1.05
2023-10-17T14:51:40.778Z,1.00
2023-10-17T14:56:42.127Z,0.73
2023-10-17T15:01:43.410Z,0.80
2023-10-17T15:06:44.851Z,1.25
2023-10-17T15:11:46.570Z,1.90
2023-10-17T15:16:47.824Z,0.73
2023-10-17T15:21:49.204Z,0.70
2023-10-17T15:26:50.560Z,0.80
2023-10-17T15:31:54.792Z,1.10
2023-10-17T15:36:57.690Z,0.95
2023-10-17T15:42:00.064Z,0.98
2023-10-17T15:47:01.321Z,0.75
2023-10-17T15:52:03.137Z,0.93
2023-10-17T15:57:04.857Z,1.45
2023-10-17T16:02:06.115Z,1.42
2023-10-17T16:07:07.687Z,1.70
2023-10-17T16:12:09.331Z,1.95
2023-10-17T16:17:10.579Z,1.88
2023-10-17T16:22:11.806Z,1.88
2023-10-17T16:27:13.112Z,1.48
2023-10-17T16:32:15.002Z,1.25
2023-10-17T16:37:16.215Z,1.60
2023-10-17T16:42:17.590Z,2.13
2023-10-17T16:47:18.909Z,2.20
2023-10-17T16:52:21.176Z,2.30
2023-10-17T16:57:22.464Z,2.60
2023-10-17T17:02:23.892Z,2.97
2023-10-17T17:07:25.582Z,7.15
2023-10-17T17:12:27.099Z,8.20
2023-10-17T17:17:28.409Z,11.05
2023-10-17T17:22:29.890Z,17.15
2023-10-17T17:27:31.344Z,11.50
2023-10-17T17:32:32.664Z,9.70
2023-10-17T17:37:34.216Z,6.53
2023-10-17T17:42:35.502Z,5.70
2023-10-17T17:47:37.344Z,4.97
2023-10-17T17:52:39.523Z,4.53
2023-10-17T17:57:40.865Z,5.20
2023-10-17T18:02:42.783Z,4.03
2023-10-17T18:07:44.687Z,4.95
2023-10-17T18:12:45.993Z,6.90
2023-10-17T18:17:47.375Z,10.52
2023-10-17T18:22:48.654Z,10.88
2023-10-17T18:27:52.191Z,9.50
2023-10-17T18:32:53.666Z,7.88
2023-10-17T18:37:55.312Z,8.68
2023-10-17T18:42:56.572Z,8.20
2023-10-17T18:47:59.094Z,7.80
2023-10-17T18:53:00.457Z,7.32
2023-10-17T18:58:01.771Z,8.90
2023-10-17T19:03:03.134Z,10.43
2023-10-17T19:08:04.705Z,12.88
2023-10-17T19:13:06.160Z,9.25
2023-10-17T19:18:08.585Z,9.70
2023-10-17T19:23:10.383Z,9.40
2023-10-17T19:28:12.449Z,10.57
2023-10-17T19:33:13.991Z,9.93
2023-10-17T19:38:15.344Z,9.20
2023-10-17T19:43:16.961Z,9.38
2023-10-17T19:48:18.300Z,10.07
2023-10-17T19:53:19.691Z,11.88
2023-10-17T19:58:23.195Z,11.27
2023-10-17T20:03:24.514Z,10.77
2023-10-17T20:08:25.822Z,10.38
2023-10-17T20:13:27.137Z,11.32
2023-10-17T20:18:28.725Z,13.18
2023-10-17T20:23:29.998Z,11.77
2023-10-17T20:28:31.416Z,12.52
2023-10-17T20:33:32.667Z,13.23
2023-10-17T20:38:33.921Z,14.43
2023-10-17T20:43:35.313Z,12.57
2023-10-17T20:48:36.737Z,12.38
2023-10-17T20:53:38.390Z,10.23
2023-10-17T20:58:40.317Z,10.55
2023-10-17T21:03:41.805Z,9.60
2023-10-17T21:08:43.192Z,9.25
2023-10-17T21:13:44.822Z,8.88
2023-10-17T21:18:46.464Z,8.90
2023-10-17T21:23:47.710Z,8.55
2023-10-17T21:28:48.940Z,6.45
2023-10-17T21:33:50.254Z,6.65
2023-10-17T21:38:52.065Z,7.28
2023-10-17T21:43:53.324Z,6.72
2023-10-17T21:48:54.641Z,8.35
2023-10-17T21:53:56.123Z,7.90
2023-10-17T21:58:57.375Z,8.57
2023-10-17T22:03:58.733Z,6.82
2023-10-17T22:08:59.989Z,6.20
2023-10-17T22:14:01.274Z,5.10
2023-10-17T22:19:02.808Z,4.95
2023-10-17T22:24:04.517Z,5.05
2023-10-17T22:29:05.895Z,4.95
2023-10-17T22:34:07.683Z,5.75
2023-10-17T22:39:09.217Z,6.35
2023-10-17T22:44:10.463Z,7.22
2023-10-17T22:49:11.771Z,6.82
2023-10-17T22:54:13.142Z,5.97
2023-10-17T22:59:14.365Z,6.28
2023-10-17T23:04:15.654Z,6.65
2023-10-17T23:09:17.248Z,5.90
2023-10-17T23:14:18.496Z,5.40
2023-10-17T23:19:19.794Z,5.43
2023-10-17T23:24:21.082Z,5.35
2023-10-17T23:29:22.334Z,5.45
2023-10-17T23:34:23.610Z,5.88
2023-10-17T23:39:25.161Z,5.32
2023-10-17T23:44:26.803Z,6.03
2023-10-17T23:49:29.753Z,5.80
2023-10-17T23:54:31.417Z,5.28
2023-10-17T23:59:32.930Z,5.82
